Time;durP1;ratioP1;P1;durP2;ratioP2;P2;SDS_P1;SDS_P2;PMS_P1;PMS_P2;Temp;Humidity;BMP_temperature;BMP_pressure;BME280_temperature;BME280_humidity;BME280_pressure;Samples;Min_cycle;Max_cycle;Signal;HPM_P1;HPM_P2
2021/06/03 00:00:15;;;;;;;13.32;9.75;;;13.00;90.80;;;;;;5028861;28;20034;-63
2021/06/03 00:02:44;;;;;;;17.83;11.55;;;13.10;90.40;;;;;;5030991;28;20043;-63
2021/06/03 00:05:12;;;;;;;13.57;8.23;;;13.20;90.50;;;;;;5026983;28;20028;-63
2021/06/03 00:07:39;;;;;;;12.40;8.35;;;13.20;90.50;;;;;;5031373;28;20033;-63
2021/06/03 00:10:08;;;;;;;12.63;9.30;;;13.30;90.20;;;;;;5028315;28;20489;-68
2021/06/03 00:12:36;;;;;;;9.35;8.45;;;13.30;90.00;;;;;;5026338;28;20060;-63
2021/06/03 00:15:09;;;;;;;17.88;10.77;;;13.30;90.30;;;;;;5026495;28;20033;-63
2021/06/03 00:17:36;;;;;;;15.73;10.75;;;13.20;90.50;;;;;;5026816;28;20053;-68
2021/06/03 00:20:11;;;;;;;16.42;9.95;;;13.20;90.80;;;;;;5026482;28;20072;-63
2021/06/03 00:22:38;;;;;;;14.55;10.90;;;13.10;90.90;;;;;;5026778;28;20045;-64
2021/06/03 00:25:07;;;;;;;15.00;10.27;;;13.10;91.50;;;;;;5029679;28;20485;-63
2021/06/03 00:27:34;;;;;;;12.90;10.35;;;13.00;91.50;;;;;;5026084;28;20471;-67
2021/06/03 00:30:03;;;;;;;18.92;11.95;;;12.90;91.70;;;;;;5026299;28;20056;-64
2021/06/03 00:32:30;;;;;;;16.88;11.82;;;12.90;92.10;;;;;;5026507;28;20060;-67
2021/06/03 00:34:57;;;;;;;14.57;11.45;;;12.90;91.80;;;;;;5026819;28;20381;-63
2021/06/03 00:37:24;;;;;;;16.25;12.20;;;12.90;91.80;;;;;;5026957;28;20049;-66
2021/06/03 00:39:51;;;;;;;15.73;12.15;;;12.90;92.10;;;;;;5026212;28;20072;-64
2021/06/03 00:42:18;;;;;;;15.25;10.82;;;12.80;92.10;;;;;;5026768;28;20029;-69
2021/06/03 00:44:46;;;;;;;18.55;11.23;;;12.80;92.50;;;;;;5025810;28;20080;-64
2021/06/03 00:47:13;;;;;;;16.65;10.82;;;12.80;92.50;;;;;;5025866;28;20025;-69
2021/06/03 00:49:40;;;;;;;16.23;11.15;;;12.80;92.50;;;;;;5025571;28;20062;-68
2021/06/03 00:52:07;;;;;;;15.88;10.60;;;12.80;92.20;;;;;;5025814;28;20072;-68
2021/06/03 00:54:34;;;;;;;14.18;10.40;;;12.80;92.30;;;;;;5024618;28;20512;-66
2021/06/03 00:57:01;;;;;;;13.95;10.88;;;12.90;91.80;;;;;;5025336;28;20025;-65
2021/06/03 00:59:28;;;;;;;14.65;11.90;;;12.90;92.40;;;;;;5018769;28;20018;-68
2021/06/03 01:01:55;;;;;;;13.57;11.15;;;13.10;92.30;;;;;;5025979;28;20021;-64
2021/06/03 01:04:22;;;;;;;12.45;10.55;;;13.20;92.20;;;;;;5028415;28;20029;-68
2021/06/03 01:06:49;;;;;;;13.82;10.75;;;13.30;92.10;;;;;;5025706;28;20053;-65
2021/06/03 01:09:50;;;;;;;13.23;10.07;;;13.20;92.10;;;;;;5025675;28;20025;-65
2021/06/03 01:12:35;;;;;;;14.18;11.50;;;13.20;91.60;;;;;;5008537;28;20120;-64
2021/06/03 01:15:06;;;;;;;15.90;11.27;;;13.20;91.50;;;;;;5019583;28;20052;-69
2021/06/03 01:17:34;;;;;;;17.35;11.98;;;13.20;91.30;;;;;;5025636;28;20022;-65
2021/06/03 01:20:02;;;;;;;15.00;12.00;;;13.30;91.70;;;;;;5025717;28;20025;-66
2021/06/03 01:22:32;;;;;;;19.08;13.35;;;13.40;92.00;;;;;;5025309;28;20402;-66
2021/06/03 01:24:59;;;;;;;17.25;13.88;;;13.50;92.40;;;;;;5025576;28;20022;-69
2021/06/03 01:27:31;;;;;;;19.70;14.68;;;13.50;92.10;;;;;;5024950;28;20087;-68
2021/06/03 01:30:12;;;;;;;21.73;14.30;;;13.50;92.10;;;;;;5025641;28;20124;-66
2021/06/03 01:32:43;;;;;;;22.25;15.98;;;13.40;92.30;;;;;;5025477;28;20366;-66
2021/06/03 01:35:16;;;;;;;17.75;14.43;;;13.40;92.50;;;;;;5024293;28;20033;-69
2021/06/03 01:37:44;;;;;;;19.92;14.63;;;13.30;92.20;;;;;;5018127;28;20033;-70
2021/06/03 01:40:12;;;;;;;22.75;15.70;;;13.40;92.60;;;;;;5025397;28;20025;-66
2021/06/03 01:42:39;;;;;;;18.10;14.90;;;13.30;93.10;;;;;;5025179;28;20021;-66
2021/06/03 01:45:08;;;;;;;20.38;14.82;;;13.30;93.20;;;;;;5025152;28;20033;-66
2021/06/03 01:47:35;;;;;;;19.20;16.05;;;13.20;93.20;;;;;;5024694;28;20033;-69
2021/06/03 01:50:05;;;;;;;19.92;14.45;;;13.20;93.10;;;;;;5025643;28;20033;-68
2021/06/03 01:52:33;;;;;;;19.45;13.30;;;13.20;92.90;;;;;;5025304;28;20489;-64
2021/06/03 01:55:01;;;;;;;18.77;15.35;;;13.30;92.80;;;;;;5024728;28;20036;-68
2021/06/03 01:57:28;;;;;;;20.13;14.77;;;13.30;92.60;;;;;;5024222;28;20029;-65
2021/06/03 01:59:55;;;;;;;17.98;14.48;;;13.20;93.00;;;;;;5025231;28;20239;-67
2021/06/03 02:02:22;;;;;;;22.15;16.52;;;13.30;93.20;;;;;;5028666;28;20093;-68
2021/06/03 02:04:49;;;;;;;21.25;19.08;;;13.40;93.50;;;;;;4333279;28;10000464;-67
2021/06/03 02:07:16;;;;;;;23.20;16.20;;;13.40;93.20;;;;;;5026161;28;20396;-67
2021/06/03 02:09:44;;;;;;;21.50;15.75;;;13.40;92.60;;;;;;5025921;28;20026;-66
2021/06/03 02:12:13;;;;;;;19.30;16.50;;;13.40;92.70;;;;;;5026366;28;20080;-64
2021/06/03 02:14:42;;;;;;;18.90;16.88;;;13.40;93.40;;;;;;5025986;28;20053;-63
2021/06/03 02:17:33;;;;;;;20.58;16.00;;;13.40;93.80;;;;;;5025284;28;20087;-63
2021/06/03 02:20:23;;;;;;;20.08;16.10;;;13.50;94.30;;;;;;5026681;28;20021;-65
2021/06/03 02:22:52;;;;;;;22.08;18.85;;;13.50;94.40;;;;;;5030386;28;20044;-66
2021/06/03 02:25:19;;;;;;;20.33;16.65;;;13.60;94.10;;;;;;5025731;28;20418;-69
2021/06/03 02:27:47;;;;;;;23.17;15.45;;;13.60;93.90;;;;;;5025591;28;20029;-68
2021/06/03 02:30:17;;;;;;;23.45;16.25;;;13.70;93.60;;;;;;5027281;28;20029;-65
2021/06/03 02:32:45;;;;;;;20.45;15.80;;;13.60;93.00;;;;;;5026352;28;20572;-65
2021/06/03 02:35:13;;;;;;;21.65;16.33;;;13.60;93.30;;;;;;5024915;28;20025;-66
2021/06/03 02:37:42;;;;;;;22.77;16.27;;;13.60;93.30;;;;;;5025733;28;20018;-65
2021/06/03 02:40:13;;;;;;;19.52;17.42;;;13.50;93.50;;;;;;5025470;28;20497;-66
2021/06/03 02:42:41;;;;;;;24.55;19.90;;;13.40;94.10;;;;;;5025516;28;20378;-67
2021/06/03 02:45:10;;;;;;;29.15;20.42;;;13.40;94.40;;;;;;5025056;28;20521;-69
2021/06/03 02:47:39;;;;;;;23.95;20.02;;;13.30;94.40;;;;;;5026661;28;20032;-69
2021/06/03 02:50:09;;;;;;;20.67;18.52;;;13.30;94.90;;;;;;5025243;28;20104;-69
2021/06/03 02:52:37;;;;;;;26.70;18.15;;;13.30;94.50;;;;;;5025231;28;20013;-67
2021/06/03 02:55:11;;;;;;;18.40;16.27;;;13.20;94.60;;;;;;5025082;28;20029;-66
2021/06/03 02:57:38;;;;;;;21.05;18.02;;;13.20;94.40;;;;;;5019167;28;20133;-69
2021/06/03 03:00:15;;;;;;;19.45;17.33;;;13.30;94.40;;;;;;5024882;28;20025;-70
2021/06/03 03:02:42;;;;;;;22.92;19.02;;;13.20;94.40;;;;;;5024133;28;20428;-70
2021/06/03 03:05:10;;;;;;;21.40;16.73;;;13.30;94.80;;;;;;5031649;28;20053;-67
2021/06/03 03:07:37;;;;;;;23.30;17.50;;;13.20;94.30;;;;;;5025767;28;20280;-69
2021/06/03 03:10:16;;;;;;;23.42;18.63;;;13.20;94.30;;;;;;5024638;28;20026;-67
2021/06/03 03:12:43;;;;;;;23.45;18.00;;;13.20;94.80;;;;;;5022566;28;20029;-69
2021/06/03 03:15:13;;;;;;;26.33;20.08;;;13.10;94.70;;;;;;5021690;28;20072;-70
2021/06/03 03:17:41;;;;;;;29.08;22.52;;;13.10;95.00;;;;;;5026930;28;20021;-68
2021/06/03 03:20:13;;;;;;;33.95;23.83;;;13.10;95.00;;;;;;5025110;28;20033;-70
2021/06/03 03:22:41;;;;;;;25.48;22.23;;;13.10;95.20;;;;;;5023612;28;20372;-67
2021/06/03 03:25:10;;;;;;;26.38;23.58;;;13.10;95.30;;;;;;5023758;28;20060;-68
2021/06/03 03:27:42;;;;;;;27.98;19.55;;;13.00;95.60;;;;;;5022093;28;20564;-68
2021/06/03 03:30:12;;;;;;;27.05;21.52;;;13.00;95.50;;;;;;5024113;28;20549;-68
2021/06/03 03:32:39;;;;;;;26.63;20.58;;;13.00;95.50;;;;;;5022390;28;20605;-70
2021/06/03 03:35:08;;;;;;;26.67;21.25;;;13.00;95.60;;;;;;5023489;28;20021;-69
2021/06/03 03:37:37;;;;;;;29.90;22.90;;;12.90;95.60;;;;;;5023491;28;20036;-69
2021/06/03 03:40:07;;;;;;;23.63;20.58;;;12.90;95.90;;;;;;5023192;28;20033;-68
2021/06/03 03:42:34;;;;;;;23.10;18.63;;;12.90;95.70;;;;;;5024748;28;20069;-68
2021/06/03 03:45:02;;;;;;;27.38;19.17;;;12.90;95.90;;;;;;5023042;28;20050;-68
2021/06/03 03:47:29;;;;;;;25.52;17.63;;;12.80;96.00;;;;;;5024102;28;20025;-67
2021/06/03 03:49:56;;;;;;;22.38;18.35;;;12.80;96.20;;;;;;5024114;28;20029;-65
2021/06/03 03:52:23;;;;;;;20.40;17.95;;;12.90;96.30;;;;;;5024744;28;20036;-67
2021/06/03 03:54:50;;;;;;;21.38;17.50;;;12.80;96.50;;;;;;5024446;28;20458;-66
2021/06/03 03:57:18;;;;;;;21.50;14.85;;;12.80;97.20;;;;;;5023478;28;20022;-67
2021/06/03 03:59:45;;;;;;;19.23;15.80;;;12.80;97.00;;;;;;5023907;28;20025;-67
2021/06/03 04:02:12;;;;;;;22.83;15.75;;;12.80;96.70;;;;;;5024660;28;20032;-67
2021/06/03 04:04:39;;;;;;;21.55;17.50;;;12.80;96.90;;;;;;5025054;28;20125;-70
2021/06/03 04:07:06;;;;;;;19.08;16.90;;;12.80;96.80;;;;;;5025993;28;20030;-68
2021/06/03 04:09:33;;;;;;;23.27;18.63;;;12.80;96.70;;;;;;5025288;28;20034;-70
2021/06/03 04:12:00;;;;;;;19.10;16.45;;;12.80;96.80;;;;;;5018499;28;20112;-70
2021/06/03 04:14:27;;;;;;;22.75;16.80;;;12.80;96.40;;;;;;5025774;28;20017;-71
2021/06/03 04:16:54;;;;;;;26.23;18.95;;;12.80;96.10;;;;;;5025244;28;20025;-68
2021/06/03 04:19:22;;;;;;;22.15;18.35;;;12.80;96.10;;;;;;5026095;28;20045;-70
2021/06/03 04:21:50;;;;;;;21.40;17.23;;;12.80;96.40;;;;;;5025522;28;20060;-70
2021/06/03 04:24:18;;;;;;;19.95;17.83;;;12.70;96.30;;;;;;5025901;28;20156;-70
2021/06/03 04:26:45;;;;;;;21.38;17.63;;;12.70;96.30;;;;;;5025745;28;20026;-71
2021/06/03 04:29:12;;;;;;;19.20;16.13;;;12.70;96.70;;;;;;5025054;28;20107;-68
2021/06/03 04:31:39;;;;;;;23.23;16.55;;;12.70;96.80;;;;;;5025284;28;20033;-67
2021/06/03 04:34:06;;;;;;;19.35;17.13;;;12.70;96.80;;;;;;5025231;28;20397;-68
2021/06/03 04:36:33;;;;;;;22.52;15.80;;;12.60;96.70;;;;;;5023346;28;20111;-68
2021/06/03 04:39:00;;;;;;;20.15;17.02;;;12.70;96.80;;;;;;5025769;28;20390;-67
2021/06/03 04:41:27;;;;;;;19.35;17.23;;;12.70;97.10;;;;;;5024456;28;20026;-67
2021/06/03 04:43:54;;;;;;;22.25;17.52;;;12.80;97.20;;;;;;5025697;28;20022;-67
2021/06/03 04:46:20;;;;;;;22.23;19.88;;;12.80;97.20;;;;;;5024273;28;20465;-67
2021/06/03 04:48:47;;;;;;;26.00;18.60;;;12.80;97.10;;;;;;5024858;28;20021;-70
2021/06/03 04:51:14;;;;;;;23.52;18.27;;;12.80;97.10;;;;;;5025201;28;20034;-70
2021/06/03 04:53:42;;;;;;;21.45;19.13;;;12.80;97.10;;;;;;5024696;28;20018;-67
2021/06/03 04:56:09;;;;;;;19.33;17.40;;;12.80;97.10;;;;;;5024372;28;20025;-68
2021/06/03 04:58:36;;;;;;;20.75;17.35;;;12.80;97.10;;;;;;5023340;28;20032;-67
2021/06/03 05:01:03;;;;;;;22.70;19.60;;;12.80;97.00;;;;;;5024255;28;20021;-70
2021/06/03 05:03:30;;;;;;;22.90;18.20;;;12.70;97.10;;;;;;5024247;28;20155;-68
2021/06/03 05:05:57;;;;;;;20.50;18.38;;;12.70;97.00;;;;;;5024490;28;20025;-68
2021/06/03 05:08:24;;;;;;;22.20;19.75;;;12.70;97.10;;;;;;5018256;28;20024;-65
2021/06/03 05:10:51;;;;;;;25.15;22.58;;;12.70;97.10;;;;;;5023835;28;20061;-68
2021/06/03 05:13:18;;;;;;;23.58;21.08;;;12.70;97.10;;;;;;5025478;28;20026;-70
2021/06/03 05:15:45;;;;;;;26.52;23.52;;;12.70;97.10;;;;;;5026400;28;20040;-68
2021/06/03 05:18:12;;;;;;;23.25;20.52;;;12.70;97.20;;;;;;5031987;28;20104;-66
2021/06/03 05:20:40;;;;;;;24.65;21.95;;;12.70;96.90;;;;;;5026707;28;20025;-66
2021/06/03 05:23:07;;;;;;;25.55;22.88;;;12.70;97.10;;;;;;5022786;28;20391;-67
2021/06/03 05:25:34;;;;;;;26.83;21.67;;;12.70;97.30;;;;;;5022808;28;20029;-67
2021/06/03 05:28:02;;;;;;;30.23;23.63;;;12.70;97.30;;;;;;5028122;28;20039;-72
2021/06/03 05:30:30;;;;;;;23.77;20.83;;;12.70;97.40;;;;;;5024338;28;20140;-73
2021/06/03 05:32:58;;;;;;;24.50;21.90;;;12.70;97.40;;;;;;5023590;28;20021;-67
2021/06/03 05:35:26;;;;;;;26.05;22.48;;;12.70;97.00;;;;;;5023602;28;20064;-73
2021/06/03 05:37:53;;;;;;;24.42;21.80;;;12.70;97.20;;;;;;5023936;28;20018;-68
2021/06/03 05:40:22;;;;;;;23.10;20.00;;;12.70;97.40;;;;;;5024003;28;20032;-68
2021/06/03 05:42:51;;;;;;;24.75;22.13;;;12.80;96.70;;;;;;5022796;28;20482;-68
2021/06/03 05:45:20;;;;;;;26.00;23.30;;;12.60;96.90;;;;;;5023728;28;20036;-73
2021/06/03 05:47:47;;;;;;;25.42;22.77;;;12.60;97.60;;;;;;5024350;28;20083;-71
2021/06/03 05:50:16;;;;;;;29.40;25.58;;;12.60;97.20;;;;;;5024868;28;20583;-72
2021/06/03 05:52:44;;;;;;;27.17;24.05;;;12.60;97.20;;;;;;5024179;28;20124;-72
2021/06/03 05:55:13;;;;;;;27.67;23.42;;;12.60;97.50;;;;;;5022584;28;20030;-68
2021/06/03 05:57:42;;;;;;;28.40;24.38;;;12.60;97.50;;;;;;5020776;28;20028;-72
2021/06/03 06:00:24;;;;;;;29.83;26.30;;;12.60;97.40;;;;;;5023542;28;20374;-68
2021/06/03 06:02:59;;;;;;;32.00;27.77;;;12.50;97.50;;;;;;5021508;28;20025;-71
2021/06/03 06:08:15;;;;;;;29.65;26.45;;;12.50;97.70;;;;;;5022454;28;20433;-68
2021/06/03 06:10:46;;;;;;;30.63;27.40;;;12.50;97.70;;;;;;5020420;28;20034;-68
2021/06/03 06:13:13;;;;;;;28.90;25.50;;;12.60;97.90;;;;;;5024314;28;20030;-68
2021/06/03 06:15:41;;;;;;;30.02;24.75;;;12.50;97.70;;;;;;5023557;28;20083;-71
2021/06/03 06:18:09;;;;;;;27.00;24.15;;;12.60;97.70;;;;;;5027790;28;20017;-69
2021/06/03 06:20:38;;;;;;;28.70;25.67;;;12.60;97.40;;;;;;5024781;28;20135;-71
2021/06/03 06:23:07;;;;;;;25.70;23.08;;;12.60;97.60;;;;;;5023408;28;20099;-70
2021/06/03 06:25:35;;;;;;;23.75;21.25;;;12.60;97.50;;;;;;5023063;28;20100;-68
2021/06/03 06:28:02;;;;;;;25.33;22.42;;;12.60;97.50;;;;;;5020009;28;20064;-68
2021/06/03 06:30:29;;;;;;;25.10;22.42;;;12.50;97.20;;;;;;5025250;28;20029;-70
2021/06/03 06:32:56;;;;;;;24.38;21.90;;;12.50;97.40;;;;;;5021370;28;20437;-67
2021/06/03 06:35:24;;;;;;;23.42;20.92;;;12.40;97.80;;;;;;5022803;28;20018;-69
2021/06/03 06:37:51;;;;;;;23.38;20.98;;;12.40;97.50;;;;;;5024289;28;20111;-70
2021/06/03 06:40:18;;;;;;;26.48;22.05;;;12.40;97.70;;;;;;5020908;28;20025;-70
2021/06/03 06:42:50;;;;;;;25.60;21.33;;;12.40;97.70;;;;;;5020789;28;20476;-70
2021/06/03 06:45:17;;;;;;;24.58;21.98;;;12.40;97.40;;;;;;5020519;28;20018;-69
2021/06/03 06:47:44;;;;;;;23.98;21.38;;;12.40;97.60;;;;;;5022657;28;20047;-68
2021/06/03 06:50:11;;;;;;;22.48;20.10;;;12.40;97.90;;;;;;5026404;28;20025;-69
2021/06/03 06:52:38;;;;;;;24.42;21.75;;;12.30;97.70;;;;;;5027715;28;20079;-69
2021/06/03 06:55:07;;;;;;;23.17;20.70;;;12.30;97.90;;;;;;5029016;28;20406;-69
2021/06/03 06:57:34;;;;;;;23.30;20.80;;;12.30;97.90;;;;;;5029698;28;20057;-69
2021/06/03 07:00:04;;;;;;;22.65;19.55;;;12.30;98.20;;;;;;5024416;28;20092;-69
2021/06/03 07:02:30;;;;;;;24.65;22.05;;;12.30;98.00;;;;;;5031502;28;20126;-70
2021/06/03 07:04:57;;;;;;;25.98;21.27;;;12.30;98.20;;;;;;5027738;28;20100;-69
2021/06/03 07:07:24;;;;;;;25.60;21.20;;;12.30;98.40;;;;;;5029443;28;20088;-70
2021/06/03 07:09:51;;;;;;;24.27;20.80;;;12.30;98.40;;;;;;5028713;28;20451;-70
2021/06/03 07:12:19;;;;;;;29.02;22.48;;;12.30;98.40;;;;;;5029870;28;20029;-68
2021/06/03 07:14:45;;;;;;;24.27;21.08;;;12.40;98.50;;;;;;5033953;28;20025;-70
2021/06/03 07:17:12;;;;;;;24.90;21.23;;;12.40;98.40;;;;;;5025840;28;20123;-69
2021/06/03 07:19:39;;;;;;;26.88;22.58;;;12.40;98.40;;;;;;5028786;28;20516;-70
2021/06/03 07:22:07;;;;;;;26.23;21.58;;;12.40;98.50;;;;;;5024025;28;20106;-67
2021/06/03 07:24:35;;;;;;;43.75;30.17;;;12.30;98.40;;;;;;5026356;28;20021;-69
2021/06/03 07:27:04;;;;;;;45.60;33.40;;;12.30;98.40;;;;;;5029680;28;20517;-69
2021/06/03 07:29:31;;;;;;;38.22;28.50;;;12.40;98.50;;;;;;5020459;28;20478;-69
2021/06/03 07:31:58;;;;;;;32.92;24.58;;;12.40;98.40;;;;;;5022046;28;20037;-68
2021/06/03 07:34:25;;;;;;;30.05;26.30;;;12.40;98.50;;;;;;5022761;28;20037;-68
2021/06/03 07:36:52;;;;;;;29.00;24.55;;;12.40;98.20;;;;;;5019880;28;20030;-69
2021/06/03 07:39:21;;;;;;;26.58;22.95;;;12.40;98.40;;;;;;5025046;28;20087;-68
2021/06/03 07:41:48;;;;;;;28.05;24.35;;;12.40;98.00;;;;;;5020607;28;20021;-72
2021/06/03 07:44:16;;;;;;;28.13;25.15;;;12.40;98.10;;;;;;5022680;28;20026;-69
2021/06/03 07:46:43;;;;;;;27.20;24.20;;;12.40;98.20;;;;;;5023804;28;20407;-68
2021/06/03 07:49:13;;;;;;;26.85;23.70;;;12.40;98.30;;;;;;5018794;28;20417;-70
2021/06/03 07:51:43;;;;;;;28.35;24.48;;;12.40;98.40;;;;;;5024408;28;20028;-70
2021/06/03 07:54:10;;;;;;;25.98;23.27;;;12.40;98.50;;;;;;5016817;28;20044;-70
2021/06/03 07:56:38;;;;;;;27.35;23.10;;;12.40;98.30;;;;;;5023562;28;20068;-68
2021/06/03 07:59:05;;;;;;;25.45;22.85;;;12.40;98.30;;;;;;5022678;28;20524;-69
2021/06/03 08:01:32;;;;;;;26.13;23.33;;;12.50;98.40;;;;;;5024159;28;20697;-69
2021/06/03 08:03:59;;;;;;;28.17;22.95;;;12.40;98.10;;;;;;5023640;28;20029;-67
2021/06/03 08:06:26;;;;;;;26.20;23.40;;;12.40;98.30;;;;;;5021498;28;20033;-67
2021/06/03 08:08:53;;;;;;;26.70;23.60;;;12.40;98.30;;;;;;5022956;28;20025;-68
2021/06/03 08:11:20;;;;;;;25.90;22.75;;;12.50;98.30;;;;;;5023600;28;20088;-69
2021/06/03 08:13:47;;;;;;;24.90;21.42;;;12.40;98.30;;;;;;5023581;28;20052;-69
2021/06/03 08:16:14;;;;;;;26.15;22.17;;;12.50;98.40;;;;;;5022591;28;20124;-68
2021/06/03 08:18:41;;;;;;;26.60;23.65;;;12.50;98.20;;;;;;5019100;28;20064;-75
2021/06/03 08:21:09;;;;;;;29.40;25.08;;;12.50;98.20;;;;;;5021720;28;20401;-69
2021/06/03 08:23:36;;;;;;;29.77;25.70;;;12.40;98.20;;;;;;5022296;28;20037;-71
2021/06/03 08:26:04;;;;;;;30.83;27.60;;;12.50;98.20;;;;;;5021365;28;20099;-71
2021/06/03 08:28:31;;;;;;;29.15;25.73;;;12.50;98.30;;;;;;5022332;28;20509;-67
2021/06/03 08:31:00;;;;;;;29.25;25.33;;;12.40;98.10;;;;;;5020507;28;20033;-68
2021/06/03 08:33:28;;;;;;;34.88;28.50;;;12.50;98.20;;;;;;5024183;28;20053;-67
2021/06/03 08:35:56;;;;;;;37.10;30.17;;;12.40;98.30;;;;;;5021991;28;20033;-67
2021/06/03 08:38:23;;;;;;;34.50;28.42;;;12.40;98.30;;;;;;5019814;28;20033;-70
2021/06/03 08:40:56;;;;;;;31.65;27.23;;;12.40;98.30;;;;;;5019639;28;20030;-69
2021/06/03 08:43:27;;;;;;;30.30;25.13;;;12.50;98.30;;;;;;5019112;28;20028;-69
2021/06/03 08:45:56;;;;;;;31.10;25.15;;;12.50;98.00;;;;;;5018967;28;20041;-68
2021/06/03 08:48:24;;;;;;;36.70;28.38;;;12.50;97.90;;;;;;5019459;28;20032;-69
2021/06/03 08:50:57;;;;;;;36.42;29.33;;;12.40;98.00;;;;;;5020032;28;20107;-66
2021/06/03 08:53:24;;;;;;;45.97;32.33;;;12.50;98.10;;;;;;5020082;28;20071;-68
2021/06/03 08:58:37;;;;;;;41.40;29.45;;;12.40;97.80;;;;;;5019214;28;20025;-68
2021/06/03 09:01:05;;;;;;;40.95;30.83;;;12.40;97.90;;;;;;5020236;28;20448;-67
2021/06/03 09:03:35;;;;;;;38.20;29.40;;;12.40;98.00;;;;;;5020071;28;20021;-69
2021/06/03 09:06:03;;;;;;;39.65;30.00;;;12.40;98.00;;;;;;5019822;28;20148;-66
2021/06/03 09:08:33;;;;;;;33.75;28.08;;;12.30;98.10;;;;;;5020369;28;20017;-69
2021/06/03 09:11:20;;;;;;;39.78;30.25;;;12.30;97.90;;;;;;5018450;28;20088;-68
2021/06/03 09:13:52;;;;;;;42.72;31.80;;;12.30;98.00;;;;;;5017920;28;20029;-66
2021/06/03 09:16:27;;;;;;;42.50;30.85;;;12.30;98.00;;;;;;5020511;28;20382;-65
2021/06/03 09:19:04;;;;;;;45.55;31.25;;;12.30;98.20;;;;;;5014144;28;20116;-65
2021/06/03 09:21:35;;;;;;;38.20;31.20;;;12.30;98.20;;;;;;5047143;23;20022;-67
2021/06/03 09:24:05;;;;;;;41.65;31.92;;;12.40;98.30;;;;;;5020196;28;20038;-69
2021/06/03 09:26:54;;;;;;;38.42;30.67;;;12.30;98.00;;;;;;5022473;28;20021;-65
2021/06/03 09:29:24;;;;;;;38.75;30.50;;;12.30;98.20;;;;;;5022058;28;20576;-69
2021/06/03 09:31:53;;;;;;;41.28;31.60;;;12.30;98.10;;;;;;5021267;28;20579;-68
2021/06/03 09:34:22;;;;;;;39.90;30.65;;;12.30;97.90;;;;;;5022612;28;20025;-66
2021/06/03 09:36:54;;;;;;;37.20;30.88;;;12.30;97.70;;;;;;5022721;28;20140;-67
2021/06/03 09:39:44;;;;;;;39.65;32.20;;;12.30;97.80;;;;;;5020927;28;20029;-68
2021/06/03 09:42:18;;;;;;;40.65;32.58;;;12.30;97.70;;;;;;5019566;28;20056;-66
2021/06/03 09:44:56;;;;;;;39.08;32.17;;;12.30;97.70;;;;;;5023328;28;20757;-65
2021/06/03 09:47:28;;;;;;;37.15;29.60;;;12.30;97.80;;;;;;5016409;28;20033;-64
2021/06/03 09:49:55;;;;;;;33.53;29.67;;;12.20;98.00;;;;;;5020984;28;20021;-66
2021/06/03 09:52:28;;;;;;;39.72;31.45;;;12.30;98.00;;;;;;5021735;28;20366;-64
2021/06/03 09:54:57;;;;;;;37.25;30.40;;;12.20;97.90;;;;;;5022756;28;20034;-64
2021/06/03 09:57:55;;;;;;;32.50;28.65;;;12.30;97.90;;;;;;5015370;28;20029;-66
2021/06/03 10:00:22;;;;;;;37.42;32.38;;;12.30;97.70;;;;;;5005879;28;20692;-64
2021/06/03 10:02:58;;;;;;;43.90;32.05;;;12.30;97.90;;;;;;5018893;28;20045;-65
2021/06/03 10:05:25;;;;;;;44.30;30.25;;;12.30;97.70;;;;;;5021533;28;20079;-64
2021/06/03 10:08:05;;;;;;;33.15;28.25;;;12.30;97.70;;;;;;5022536;28;20027;-67
2021/06/03 10:10:35;;;;;;;36.83;27.65;;;12.30;97.70;;;;;;5021488;28;20025;-64
2021/06/03 10:13:07;;;;;;;32.13;28.25;;;12.30;97.90;;;;;;5021381;28;20053;-66
2021/06/03 10:15:39;;;;;;;33.45;28.05;;;12.30;97.80;;;;;;5022529;28;20025;-65
2021/06/03 10:18:08;;;;;;;45.25;31.73;;;12.30;98.00;;;;;;5021251;28;20615;-65
2021/06/03 10:20:52;;;;;;;47.03;32.03;;;12.30;97.90;;;;;;5022451;28;20581;-67
2021/06/03 10:23:28;;;;;;;48.20;32.60;;;12.30;98.00;;;;;;5024897;28;20128;-68
2021/06/03 10:26:06;;;;;;;52.50;33.42;;;12.20;97.60;;;;;;5027676;28;20038;-65
2021/06/03 10:28:33;;;;;;;57.22;35.00;;;12.20;97.90;;;;;;5028173;28;20499;-69
2021/06/03 10:31:07;;;;;;;46.25;32.30;;;12.20;97.90;;;;;;5026115;28;20041;-65
2021/06/03 10:33:36;;;;;;;45.10;31.58;;;12.20;98.10;;;;;;5026180;28;20504;-66
2021/06/03 10:36:08;;;;;;;42.03;29.13;;;12.20;98.10;;;;;;5033603;28;20742;-66
2021/06/03 10:38:36;;;;;;;39.20;29.30;;;12.20;98.20;;;;;;5025717;28;20032;-72
2021/06/03 10:41:06;;;;;;;46.00;30.13;;;12.20;98.10;;;;;;5026813;28;20033;-66
2021/06/03 10:43:36;;;;;;;40.15;27.55;;;12.20;98.10;;;;;;5026014;28;20022;-66
2021/06/03 10:46:05;;;;;;;35.13;25.95;;;12.10;97.90;;;;;;5025971;28;20490;-65
2021/06/03 10:48:32;;;;;;;41.97;31.05;;;12.10;97.90;;;;;;5022996;28;20079;-65
2021/06/03 10:51:03;;;;;;;41.30;30.10;;;12.00;97.70;;;;;;5028849;28;20706;-67
2021/06/03 10:53:31;;;;;;;48.45;34.72;;;12.00;97.90;;;;;;5025685;28;20030;-66
2021/06/03 10:56:11;;;;;;;54.55;39.10;;;12.00;97.90;;;;;;5029122;28;20060;-69
2021/06/03 10:58:39;;;;;;;49.80;32.72;;;12.00;98.00;;;;;;5022447;28;20059;-68
2021/06/03 11:01:09;;;;;;;48.28;32.05;;;12.00;98.10;;;;;;5032629;28;20857;-66
2021/06/03 11:03:38;;;;;;;45.15;30.63;;;12.00;98.10;;;;;;5027789;28;20025;-66
2021/06/03 11:06:08;;;;;;;41.42;30.75;;;12.00;98.10;;;;;;5024953;28;20029;-65
2021/06/03 11:08:44;;;;;;;43.22;30.75;;;12.00;98.10;;;;;;5030738;28;20649;-69
2021/06/03 11:11:11;;;;;;;45.83;31.60;;;12.00;97.90;;;;;;5028836;28;20061;-68
2021/06/03 11:13:59;;;;;;;47.05;31.50;;;12.00;97.80;;;;;;5030920;28;20928;-69
2021/06/03 11:16:49;;;;;;;48.53;32.58;;;12.10;97.80;;;;;;5030062;28;20025;-69
2021/06/03 11:19:18;;;;;;;67.13;36.90;;;12.10;98.00;;;;;;5025685;28;20022;-70
2021/06/03 11:21:51;;;;;;;56.33;35.63;;;12.10;98.00;;;;;;5026932;28;20061;-67
2021/06/03 11:24:36;;;;;;;;;;;12.00;97.90;;;;;;5025031;28;20668;-72
2021/06/03 11:27:08;;;;;;;73.22;36.72;;;12.00;98.10;;;;;;5025157;28;19920;-68
2021/06/03 11:29:47;;;;;;;67.43;38.35;;;12.00;98.30;;;;;;5029684;28;20072;-67
2021/06/03 11:32:16;;;;;;;62.25;38.20;;;11.90;98.20;;;;;;5034230;28;20037;-65
2021/06/03 11:34:47;;;;;;;110.65;42.05;;;11.90;98.40;;;;;;5028735;28;20040;-64
2021/06/03 11:37:23;;;;;;;106.55;41.83;;;12.00;98.30;;;;;;5028365;28;20041;-65
2021/06/03 11:40:10;;;;;;;82.07;36.88;;;12.00;98.50;;;;;;5028064;28;20126;-65
2021/06/03 11:42:55;;;;;;;81.07;37.85;;;12.00;98.60;;;;;;5030223;28;20026;-68
2021/06/03 11:45:33;;;;;;;76.97;34.95;;;12.00;98.60;;;;;;5029095;28;20029;-65
2021/06/03 11:48:12;;;;;;;55.97;32.72;;;12.00;98.50;;;;;;5031203;28;20039;-67
2021/06/03 11:50:47;;;;;;;58.58;31.45;;;12.10;98.20;;;;;;5026543;28;20113;-67
2021/06/03 11:53:17;;;;;;;51.63;32.67;;;12.10;98.20;;;;;;5031215;28;20032;-67
2021/06/03 11:56:24;;;;;;;53.47;30.30;;;12.20;98.20;;;;;;5029212;28;20080;-67
2021/06/03 11:58:54;;;;;;;89.80;33.00;;;12.10;98.20;;;;;;5031512;28;20519;-65
2021/06/03 12:01:23;;;;;;;62.33;30.48;;;12.10;98.10;;;;;;5030001;28;20025;-67
2021/06/03 12:04:10;;;;;;;58.17;25.83;;;12.10;98.20;;;;;;5028669;28;20033;-64
2021/06/03 12:06:40;;;;;;;41.60;24.80;;;12.10;98.30;;;;;;5029416;28;20056;-69
2021/06/03 12:09:19;;;;;;;52.04;25.90;;;12.20;98.00;;;;;;4897434;28;10000865;-67
2021/06/03 12:11:53;;;;;;;40.15;24.67;;;12.10;98.00;;;;;;5023506;28;20291;-67
2021/06/03 12:14:28;;;;;;;47.70;26.00;;;12.10;98.00;;;;;;5028103;28;20033;-68
2021/06/03 12:17:00;;;;;;;54.35;22.63;;;12.10;98.30;;;;;;5026138;28;20592;-65
2021/06/03 12:19:52;;;;;;;69.40;24.33;;;12.10;98.30;;;;;;5025374;28;20018;-66
2021/06/03 12:22:25;;;;;;;92.63;25.55;;;12.00;98.20;;;;;;5025855;28;20065;-66
2021/06/03 12:24:54;;;;;;;45.97;22.25;;;12.00;98.40;;;;;;5025760;28;20045;-69
2021/06/03 12:27:29;;;;;;;47.45;22.67;;;12.00;98.60;;;;;;5024095;28;20172;-65
2021/06/03 12:30:10;;;;;;;47.53;21.88;;;12.00;98.60;;;;;;5025420;28;20021;-66
2021/06/03 12:32:37;;;;;;;40.72;20.45;;;12.00;98.90;;;;;;5029206;28;20083;-67
2021/06/03 12:35:05;;;;;;;63.30;23.40;;;12.00;98.90;;;;;;5028440;28;20052;-65
2021/06/03 12:37:35;;;;;;;41.47;22.30;;;12.00;99.00;;;;;;5027810;28;20026;-67
2021/06/03 12:40:20;;;;;;;45.85;21.75;;;12.00;99.10;;;;;;5027267;28;20021;-66
2021/06/03 12:42:48;;;;;;;48.35;21.73;;;12.00;99.30;;;;;;5026443;28;20021;-67
2021/06/03 12:45:15;;;;;;;54.67;23.45;;;12.00;99.30;;;;;;5027811;28;20025;-68
2021/06/03 12:47:42;;;;;;;51.88;23.35;;;12.10;99.30;;;;;;5027903;28;20087;-69